sensor_id;sensor_type;location;lat;lon;timestamp;noise_LAeq;noise_LA_min;noise_LA_max;noise_LA01;noise_LA95
74214;Laerm;62576;55.694;37.494;2024-03-17T00:00:45;63.53;51.73;72.30;;
74214;Laerm;62576;55.694;37.494;2024-03-17T00:03:15;62.22;53.46;69.31;;
74214;Laerm;62576;55.694;37.494;2024-03-17T00:05:47;61.90;51.46;69.51;;
74214;Laerm;62576;55.694;37.494;2024-03-17T00:08:17;62.20;54.40;70.32;;
74214;Laerm;62576;55.694;37.494;2024-03-17T00:10:50;61.36;51.89;74.52;;
74214;Laerm;62576;55.694;37.494;2024-03-17T00:13:20;61.01;50.79;72.01;;
74214;Laerm;62576;55.694;37.494;2024-03-17T00:15:52;64.02;55.53;70.82;;
74214;Laerm;62576;55.694;37.494;2024-03-17T00:18:22;61.84;54.06;69.42;;
74214;Laerm;62576;55.694;37.494;2024-03-17T00:20:54;60.66;28.16;66.54;;
74214;Laerm;62576;55.694;37.494;2024-03-17T00:23:25;64.13;53.10;76.19;;
74214;Laerm;62576;55.694;37.494;2024-03-17T00:25:55;61.11;52.08;73.63;;
74214;Laerm;62576;55.694;37.494;2024-03-17T00:28:25;64.38;53.64;76.37;;
74214;Laerm;62576;55.694;37.494;2024-03-17T00:30:56;61.22;52.62;72.88;;
74214;Laerm;62576;55.694;37.494;2024-03-17T00:33:26;61.95;54.08;77.89;;
74214;Laerm;62576;55.694;37.494;2024-03-17T00:35:55;61.18;49.93;70.78;;
74214;Laerm;62576;55.694;37.494;2024-03-17T00:38:25;61.21;52.34;69.59;;
74214;Laerm;62576;55.694;37.494;2024-03-17T00:40:51;62.81;51.88;70.94;;
74214;Laerm;62576;55.694;37.494;2024-03-17T00:43:22;61.71;52.64;68.01;;
74214;Laerm;62576;55.694;37.494;2024-03-17T00:45:51;61.68;54.08;70.83;;
74214;Laerm;62576;55.694;37.494;2024-03-17T00:48:23;61.06;54.50;67.89;;
74214;Laerm;62576;55.694;37.494;2024-03-17T00:50:57;61.44;51.90;69.16;;
74214;Laerm;62576;55.694;37.494;2024-03-17T00:53:28;60.72;51.81;77.15;;
74214;Laerm;62576;55.694;37.494;2024-03-17T00:55:59;59.74;50.76;69.42;;
74214;Laerm;62576;55.694;37.494;2024-03-17T00:58:29;62.19;51.52;69.63;;
74214;Laerm;62576;55.694;37.494;2024-03-17T01:01:00;61.18;52.76;67.43;;
74214;Laerm;62576;55.694;37.494;2024-03-17T01:03:37;61.89;52.50;70.58;;
74214;Laerm;62576;55.694;37.494;2024-03-17T01:06:08;62.96;53.01;76.29;;
74214;Laerm;62576;55.694;37.494;2024-03-17T01:08:34;61.94;52.79;69.73;;
74214;Laerm;62576;55.694;37.494;2024-03-17T01:11:05;59.79;52.41;69.36;;
74214;Laerm;62576;55.694;37.494;2024-03-17T01:13:37;59.63;51.68;65.89;;
74214;Laerm;62576;55.694;37.494;2024-03-17T01:16:10;60.24;51.50;68.97;;
74214;Laerm;62576;55.694;37.494;2024-03-17T01:18:41;61.73;52.92;71.74;;
74214;Laerm;62576;55.694;37.494;2024-03-17T01:21:12;61.53;53.24;68.24;;
74214;Laerm;62576;55.694;37.494;2024-03-17T01:23:41;60.72;53.27;66.48;;
74214;Laerm;62576;55.694;37.494;2024-03-17T01:26:11;62.32;52.63;70.13;;
74214;Laerm;62576;55.694;37.494;2024-03-17T01:28:40;60.03;52.70;66.27;;
74214;Laerm;62576;55.694;37.494;2024-03-17T02:33:51;60.59;32.20;68.08;;
74214;Laerm;62576;55.694;37.494;2024-03-17T03:07:13;61.89;31.79;69.69;;
74214;Laerm;62576;55.694;37.494;2024-03-17T03:09:44;61.78;52.94;70.07;;
74214;Laerm;62576;55.694;37.494;2024-03-17T03:12:14;62.27;52.38;70.29;;
74214;Laerm;62576;55.694;37.494;2024-03-17T03:14:45;62.15;54.29;70.15;;
74214;Laerm;62576;55.694;37.494;2024-03-17T03:17:15;62.17;51.97;70.95;;
74214;Laerm;62576;55.694;37.494;2024-03-17T03:19:46;62.37;55.13;69.72;;
74214;Laerm;62576;55.694;37.494;2024-03-17T03:22:18;62.54;54.33;70.47;;
74214;Laerm;62576;55.694;37.494;2024-03-17T03:24:51;62.26;54.06;70.19;;
74214;Laerm;62576;55.694;37.494;2024-03-17T03:27:22;62.15;52.00;67.28;;
74214;Laerm;62576;55.694;37.494;2024-03-17T03:29:53;62.65;54.09;69.58;;
74214;Laerm;62576;55.694;37.494;2024-03-17T03:32:25;61.74;53.75;68.92;;
74214;Laerm;62576;55.694;37.494;2024-03-17T03:34:55;61.27;54.24;69.21;;
74214;Laerm;62576;55.694;37.494;2024-03-17T03:37:30;62.02;52.31;70.36;;
74214;Laerm;62576;55.694;37.494;2024-03-17T03:40:00;63.09;46.16;69.72;;
74214;Laerm;62576;55.694;37.494;2024-03-17T03:42:37;63.09;55.43;71.39;;
74214;Laerm;62576;55.694;37.494;2024-03-17T03:45:08;63.69;54.31;71.05;;
74214;Laerm;62576;55.694;37.494;2024-03-17T03:47:41;63.34;55.80;69.66;;
74214;Laerm;62576;55.694;37.494;2024-03-17T03:50:14;61.55;52.67;69.80;;
74214;Laerm;62576;55.694;37.494;2024-03-17T03:52:46;63.82;54.18;72.18;;
74214;Laerm;62576;55.694;37.494;2024-03-17T03:55:17;62.88;49.84;70.91;;
74214;Laerm;62576;55.694;37.494;2024-03-17T03:57:48;61.95;52.99;69.08;;
74214;Laerm;62576;55.694;37.494;2024-03-17T04:00:21;64.60;54.52;71.10;;
74214;Laerm;62576;55.694;37.494;2024-03-17T04:02:52;63.72;53.51;76.77;;
74214;Laerm;62576;55.694;37.494;2024-03-17T04:05:22;64.36;32.96;73.60;;
74214;Laerm;62576;55.694;37.494;2024-03-17T04:07:54;64.69;55.43;72.58;;
74214;Laerm;62576;55.694;37.494;2024-03-17T04:10:24;65.57;56.22;75.76;;
74214;Laerm;62576;55.694;37.494;2024-03-17T04:12:55;65.14;53.84;72.42;;
74214;Laerm;62576;55.694;37.494;2024-03-17T04:15:25;64.75;56.39;72.12;;
74214;Laerm;62576;55.694;37.494;2024-03-17T04:17:56;65.42;57.40;71.36;;
74214;Laerm;62576;55.694;37.494;2024-03-17T04:20:26;64.53;55.52;72.77;;
74214;Laerm;62576;55.694;37.494;2024-03-17T04:22:58;63.40;57.03;69.92;;
74214;Laerm;62576;55.694;37.494;2024-03-17T04:25:28;64.05;57.92;69.59;;
74214;Laerm;62576;55.694;37.494;2024-03-17T04:27:59;65.73;58.54;70.09;;
74214;Laerm;62576;55.694;37.494;2024-03-17T04:30:34;66.39;57.23;74.61;;
74214;Laerm;62576;55.694;37.494;2024-03-17T04:40:09;64.07;54.51;70.59;;
74214;Laerm;62576;55.694;37.494;2024-03-17T04:42:40;64.10;56.96;69.99;;
74214;Laerm;62576;55.694;37.494;2024-03-17T04:45:10;64.58;54.69;71.87;;
74214;Laerm;62576;55.694;37.494;2024-03-17T04:47:42;64.31;56.92;71.91;;
74214;Laerm;62576;55.694;37.494;2024-03-17T04:50:13;63.67;55.33;69.89;;
74214;Laerm;62576;55.694;37.494;2024-03-17T04:52:43;64.52;54.00;70.43;;
74214;Laerm;62576;55.694;37.494;2024-03-17T04:55:15;65.17;57.42;80.58;;
74214;Laerm;62576;55.694;37.494;2024-03-17T04:57:47;64.58;56.31;70.95;;
74214;Laerm;62576;55.694;37.494;2024-03-17T05:00:18;64.06;53.79;72.81;;
74214;Laerm;62576;55.694;37.494;2024-03-17T05:02:50;63.20;52.47;69.17;;
74214;Laerm;62576;55.694;37.494;2024-03-17T05:05:22;62.81;53.97;70.40;;
74214;Laerm;62576;55.694;37.494;2024-03-17T05:07:55;63.50;54.56;69.52;;
74214;Laerm;62576;55.694;37.494;2024-03-17T05:10:27;62.52;55.74;68.81;;
74214;Laerm;62576;55.694;37.494;2024-03-17T05:12:59;63.24;54.22;70.44;;
74214;Laerm;62576;55.694;37.494;2024-03-17T05:15:29;63.48;55.72;70.95;;
74214;Laerm;62576;55.694;37.494;2024-03-17T05:17:59;64.14;56.57;71.37;;
74214;Laerm;62576;55.694;37.494;2024-03-17T05:20:30;64.52;52.61;73.78;;
74214;Laerm;62576;55.694;37.494;2024-03-17T05:23:01;61.95;54.92;67.77;;
74214;Laerm;62576;55.694;37.494;2024-03-17T05:25:33;63.73;53.62;70.55;;
74214;Laerm;62576;55.694;37.494;2024-03-17T05:28:05;63.55;54.90;68.95;;
74214;Laerm;62576;55.694;37.494;2024-03-17T05:30:36;64.13;56.22;69.17;;
74214;Laerm;62576;55.694;37.494;2024-03-17T05:33:06;64.29;53.91;71.72;;
74214;Laerm;62576;55.694;37.494;2024-03-17T05:35:37;63.75;55.59;69.96;;
74214;Laerm;62576;55.694;37.494;2024-03-17T05:38:07;63.29;55.05;71.61;;
74214;Laerm;62576;55.694;37.494;2024-03-17T05:40:40;62.70;56.71;68.93;;
74214;Laerm;62576;55.694;37.494;2024-03-17T05:43:10;63.10;57.18;68.81;;
74214;Laerm;62576;55.694;37.494;2024-03-17T05:45:40;62.72;54.88;71.49;;
74214;Laerm;62576;55.694;37.494;2024-03-17T05:48:12;62.98;55.37;73.22;;
74214;Laerm;62576;55.694;37.494;2024-03-17T05:50:42;60.59;35.04;71.75;;
74214;Laerm;62576;55.694;37.494;2024-03-17T05:53:13;64.59;56.79;70.82;;
74214;Laerm;62576;55.694;37.494;2024-03-17T05:55:45;63.56;58.47;68.33;;
74214;Laerm;62576;55.694;37.494;2024-03-17T05:58:16;65.07;40.50;73.10;;
74214;Laerm;62576;55.694;37.494;2024-03-17T06:00:46;65.51;55.19;77.69;;
74214;Laerm;62576;55.694;37.494;2024-03-17T06:03:16;63.23;39.57;68.46;;
74214;Laerm;62576;55.694;37.494;2024-03-17T06:05:48;63.82;51.48;69.55;;
74214;Laerm;62576;55.694;37.494;2024-03-17T06:08:18;63.66;51.84;70.09;;
74214;Laerm;62576;55.694;37.494;2024-03-17T06:10:50;63.19;38.63;69.29;;
74214;Laerm;62576;55.694;37.494;2024-03-17T06:13:21;65.06;46.72;70.78;;
74214;Laerm;62576;55.694;37.494;2024-03-17T06:15:51;64.88;38.69;70.79;;
74214;Laerm;62576;55.694;37.494;2024-03-17T06:18:22;65.44;37.74;71.83;;
74214;Laerm;62576;55.694;37.494;2024-03-17T06:20:52;64.49;52.46;71.42;;
74214;Laerm;62576;55.694;37.494;2024-03-17T06:23:22;68.13;51.26;86.67;;
74214;Laerm;62576;55.694;37.494;2024-03-17T06:25:54;64.46;36.51;71.23;;
74214;Laerm;62576;55.694;37.494;2024-03-17T06:28:25;66.91;49.76;76.39;;
74214;Laerm;62576;55.694;37.494;2024-03-17T06:30:56;69.48;55.40;78.60;;
74214;Laerm;62576;55.694;37.494;2024-03-17T06:33:28;66.71;32.82;72.28;;
74214;Laerm;62576;55.694;37.494;2024-03-17T06:36:01;67.21;55.92;73.28;;
74214;Laerm;62576;55.694;37.494;2024-03-17T06:38:33;65.82;57.26;73.98;;
74214;Laerm;62576;55.694;37.494;2024-03-17T06:41:05;66.57;37.17;71.95;;
74214;Laerm;62576;55.694;37.494;2024-03-17T06:43:35;67.57;-8.22;96.22;;
74214;Laerm;62576;55.694;37.494;2024-03-17T06:46:07;65.25;-14.34;71.99;;
74214;Laerm;62576;55.694;37.494;2024-03-17T06:48:38;66.37;36.56;72.34;;
74214;Laerm;62576;55.694;37.494;2024-03-17T06:51:08;67.36;-12.60;96.23;;
74214;Laerm;62576;55.694;37.494;2024-03-17T06:53:38;63.81;-9.30;70.35;;
74214;Laerm;62576;55.694;37.494;2024-03-17T06:56:10;65.05;-14.52;75.84;;
74214;Laerm;62576;55.694;37.494;2024-03-17T06:58:51;65.22;-14.63;70.02;;
74214;Laerm;62576;55.694;37.494;2024-03-17T07:26:02;65.17;-327.34;72.87;;
74214;Laerm;62576;55.694;37.494;2024-03-17T07:45:32;71.65;-323.53;96.23;;
74214;Laerm;62576;55.694;37.494;2024-03-17T07:48:03;70.21;-289.08;96.22;;
74214;Laerm;62576;55.694;37.494;2024-03-17T07:50:33;69.32;-75.85;96.22;;
74214;Laerm;62576;55.694;37.494;2024-03-17T07:53:04;65.12;-22.52;71.45;;
74214;Laerm;62576;55.694;37.494;2024-03-17T07:55:31;70.45;-227.73;96.22;;
74214;Laerm;62576;55.694;37.494;2024-03-17T07:58:01;67.23;-141.12;96.18;;
74214;Laerm;62576;55.694;37.494;2024-03-17T08:00:32;69.82;-148.67;96.23;;
74214;Laerm;62576;55.694;37.494;2024-03-17T08:03:03;68.18;-334.33;96.34;;
74214;Laerm;62576;55.694;37.494;2024-03-17T08:08:35;63.67;-328.31;96.23;;
74214;Laerm;62576;55.694;37.494;2024-03-17T08:11:05;56.90;-328.31;68.58;;
74214;Laerm;62576;55.694;37.494;2024-03-17T08:13:35;63.23;-334.33;96.23;;
74214;Laerm;62576;55.694;37.494;2024-03-17T08:16:07;66.46;-331.32;96.23;;
74214;Laerm;62576;55.694;37.494;2024-03-17T08:18:38;69.83;-334.33;96.23;;
74214;Laerm;62576;55.694;37.494;2024-03-17T08:21:09;65.87;-334.33;96.23;;
74214;Laerm;62576;55.694;37.494;2024-03-17T08:23:39;45.54;-334.33;65.84;;
74214;Laerm;62576;55.694;37.494;2024-03-17T08:26:11;68.84;-328.31;96.23;;
74214;Laerm;62576;55.694;37.494;2024-03-17T08:28:42;66.01;-334.33;96.23;;
74214;Laerm;62576;55.694;37.494;2024-03-17T08:31:14;64.64;-334.33;96.21;;
74214;Laerm;62576;55.694;37.494;2024-03-17T08:33:45;61.80;-327.34;69.59;;
74214;Laerm;62576;55.694;37.494;2024-03-17T08:36:18;65.89;-334.33;96.23;;
74214;Laerm;62576;55.694;37.494;2024-03-17T08:38:49;65.95;-334.33;96.23;;
74214;Laerm;62576;55.694;37.494;2024-03-17T08:41:19;66.28;-334.33;96.23;;
74214;Laerm;62576;55.694;37.494;2024-03-17T09:06:51;66.23;-323.53;96.23;;
74214;Laerm;62576;55.694;37.494;2024-03-17T09:09:52;28.85;-329.56;58.35;;
74214;Laerm;62576;55.694;37.494;2024-03-17T09:12:26;62.61;-308.52;96.23;;
74214;Laerm;62576;55.694;37.494;2024-03-17T09:14:57;66.04;-62.87;96.23;;
74214;Laerm;62576;55.694;37.494;2024-03-17T09:17:27;63.86;-37.31;96.23;;
74214;Laerm;62576;55.694;37.494;2024-03-17T09:19:58;64.36;-18.87;96.21;;
74214;Laerm;62576;55.694;37.494;2024-03-17T09:22:30;63.37;-7.10;70.13;;
74214;Laerm;62576;55.694;37.494;2024-03-17T09:25:01;66.39;-15.18;96.22;;
74214;Laerm;62576;55.694;37.494;2024-03-17T09:27:31;67.92;-63.69;96.23;;
74214;Laerm;62576;55.694;37.494;2024-03-17T09:30:15;68.19;-79.21;96.22;;
74214;Laerm;62576;55.694;37.494;2024-03-17T09:32:45;68.91;-64.24;96.23;;
74214;Laerm;62576;55.694;37.494;2024-03-17T09:35:16;52.04;-38.95;63.82;;
74214;Laerm;62576;55.694;37.494;2024-03-17T09:37:46;63.30;-14.66;96.20;;
74214;Laerm;62576;55.694;37.494;2024-03-17T09:40:19;63.52;-324.78;96.23;;
74214;Laerm;62576;55.694;37.494;2024-03-17T09:42:52;62.98;-325.88;96.22;;
74214;Laerm;62576;55.694;37.494;2024-03-17T09:45:26;67.21;-325.88;96.22;;
74214;Laerm;62576;55.694;37.494;2024-03-17T09:47:57;63.80;-331.32;96.23;;
74214;Laerm;62576;55.694;37.494;2024-03-17T09:50:28;66.24;-121.57;96.22;;
74214;Laerm;62576;55.694;37.494;2024-03-17T09:52:58;41.67;-326.54;59.44;;
74214;Laerm;62576;55.694;37.494;2024-03-17T09:55:30;68.84;-328.31;96.23;;
74214;Laerm;62576;55.694;37.494;2024-03-17T09:58:00;69.91;-88.52;96.23;;
74214;Laerm;62576;55.694;37.494;2024-03-17T10:00:32;63.31;-175.40;96.23;;
74214;Laerm;62576;55.694;37.494;2024-03-17T10:03:03;63.79;-323.91;96.22;;
74214;Laerm;62576;55.694;37.494;2024-03-17T10:05:33;65.88;-326.54;96.23;;
74214;Laerm;62576;55.694;37.494;2024-03-17T10:08:04;65.86;-329.56;96.21;;
74214;Laerm;62576;55.694;37.494;2024-03-17T10:10:34;68.29;-334.33;96.23;;
74214;Laerm;62576;55.694;37.494;2024-03-17T10:13:12;68.88;-325.88;96.33;;
74214;Laerm;62576;55.694;37.494;2024-03-17T10:15:49;71.42;-329.56;96.22;;
74214;Laerm;62576;55.694;37.494;2024-03-17T10:18:22;68.21;-334.33;96.23;;
74214;Laerm;62576;55.694;37.494;2024-03-17T10:20:53;71.57;-327.34;96.23;;
74214;Laerm;62576;55.694;37.494;2024-03-17T10:23:26;5.00;5.00;5.00;;
74214;Laerm;62576;55.694;37.494;2024-03-17T10:25:57;71.57;-328.31;96.23;;
74214;Laerm;62576;55.694;37.494;2024-03-17T10:28:24;65.95;-325.88;96.22;;
74214;Laerm;62576;55.694;37.494;2024-03-17T10:31:00;65.79;-334.33;96.23;;
74214;Laerm;62576;55.694;37.494;2024-03-17T10:33:30;62.87;-326.54;96.23;;
74214;Laerm;62576;55.694;37.494;2024-03-17T10:36:02;62.82;-334.33;96.23;;
74214;Laerm;62576;55.694;37.494;2024-03-17T10:38:34;67.59;-331.32;96.22;;
74214;Laerm;62576;55.694;37.494;2024-03-17T10:41:05;66.43;-334.33;96.22;;
74214;Laerm;62576;55.694;37.494;2024-03-17T10:43:35;65.87;-331.32;96.22;;
74214;Laerm;62576;55.694;37.494;2024-03-17T10:46:11;71.19;-328.31;96.23;;
74214;Laerm;62576;55.694;37.494;2024-03-17T10:48:45;43.19;-158.85;58.84;;
74214;Laerm;62576;55.694;37.494;2024-03-17T10:51:17;65.83;-328.31;96.23;;
74214;Laerm;62576;55.694;37.494;2024-03-17T10:54:24;45.37;-74.53;59.39;;
74214;Laerm;62576;55.694;37.494;2024-03-17T10:57:23;46.86;-60.16;59.61;;
74214;Laerm;62576;55.694;37.494;2024-03-17T10:59:57;47.63;-62.95;61.93;;
74214;Laerm;62576;55.694;37.494;2024-03-17T11:02:41;51.21;-75.53;66.95;;
74214;Laerm;62576;55.694;37.494;2024-03-17T11:05:14;63.14;-29.31;96.22;;
74214;Laerm;62576;55.694;37.494;2024-03-17T11:07:46;63.05;-34.74;96.21;;
74214;Laerm;62576;55.694;37.494;2024-03-17T11:10:19;67.63;-79.75;96.23;;
74214;Laerm;62576;55.694;37.494;2024-03-17T11:12:50;66.47;-31.87;96.23;;
74214;Laerm;62576;55.694;37.494;2024-03-17T11:15:40;64.14;-21.37;96.21;;
74214;Laerm;62576;55.694;37.494;2024-03-17T11:18:35;65.09;-0.54;71.81;;
74214;Laerm;62576;55.694;37.494;2024-03-17T11:21:07;64.81;4.10;67.38;;
74214;Laerm;62576;55.694;37.494;2024-03-17T11:23:39;66.41;58.90;96.23;;
74214;Laerm;62576;55.694;37.494;2024-03-17T11:26:11;63.48;58.21;68.28;;
74214;Laerm;62576;55.694;37.494;2024-03-17T11:28:46;66.86;3.46;96.23;;
74214;Laerm;62576;55.694;37.494;2024-03-17T11:31:38;60.76;-6.02;66.77;;
74214;Laerm;62576;55.694;37.494;2024-03-17T11:34:32;67.27;-10.46;96.23;;
74214;Laerm;62576;55.694;37.494;2024-03-17T11:37:04;68.21;-9.76;96.22;;
74214;Laerm;62576;55.694;37.494;2024-03-17T11:39:47;64.46;10.49;67.57;;
74214;Laerm;62576;55.694;37.494;2024-03-17T11:42:21;65.38;59.19;77.14;;
74214;Laerm;62576;55.694;37.494;2024-03-17T11:45:00;65.03;60.91;69.20;;
74214;Laerm;62576;55.694;37.494;2024-03-17T11:47:38;65.17;57.70;69.68;;
74214;Laerm;62576;55.694;37.494;2024-03-17T11:50:10;65.50;60.10;79.55;;
74214;Laerm;62576;55.694;37.494;2024-03-17T11:52:41;65.93;58.68;96.23;;
74214;Laerm;62576;55.694;37.494;2024-03-17T11:55:16;68.31;4.92;96.23;;
74214;Laerm;62576;55.694;37.494;2024-03-17T11:57:46;64.26;-9.21;67.84;;
74214;Laerm;62576;55.694;37.494;2024-03-17T12:00:19;70.26;-0.28;99.09;;
74214;Laerm;62576;55.694;37.494;2024-03-17T12:02:51;64.92;6.26;67.53;;
74214;Laerm;62576;55.694;37.494;2024-03-17T12:05:24;69.56;41.53;96.23;;
74214;Laerm;62576;55.694;37.494;2024-03-17T12:07:56;65.27;2.86;67.87;;
74214;Laerm;62576;55.694;37.494;2024-03-17T12:10:25;67.18;9.73;96.19;;
74214;Laerm;62576;55.694;37.494;2024-03-17T12:12:56;68.66;11.74;96.23;;
74214;Laerm;62576;55.694;37.494;2024-03-17T12:15:25;67.53;55.66;96.41;;
74214;Laerm;62576;55.694;37.494;2024-03-17T12:17:55;69.60;46.74;99.01;;
74214;Laerm;62576;55.694;37.494;2024-03-17T12:20:47;67.67;41.42;99.22;;
74214;Laerm;62576;55.694;37.494;2024-03-17T12:23:19;66.57;4.26;96.20;;
74214;Laerm;62576;55.694;37.494;2024-03-17T12:25:49;69.16;-4.73;99.21;;
74214;Laerm;62576;55.694;37.494;2024-03-17T12:28:18;62.42;11.54;66.55;;
74214;Laerm;62576;55.694;37.494;2024-03-17T12:30:49;63.01;55.10;66.25;;
74214;Laerm;62576;55.694;37.494;2024-03-17T12:33:22;62.78;57.87;71.24;;
74214;Laerm;62576;55.694;37.494;2024-03-17T12:35:53;68.14;59.15;99.21;;
74214;Laerm;62576;55.694;37.494;2024-03-17T12:38:28;69.01;10.73;99.23;;
74214;Laerm;62576;55.694;37.494;2024-03-17T12:40:57;64.25;48.78;68.11;;
74214;Laerm;62576;55.694;37.494;2024-03-17T12:43:28;69.46;12.59;96.23;;
74214;Laerm;62576;55.694;37.494;2024-03-17T12:45:57;67.15;8.62;96.28;;
74214;Laerm;62576;55.694;37.494;2024-03-17T12:48:27;64.32;55.85;68.16;;
74214;Laerm;62576;55.694;37.494;2024-03-17T12:50:59;62.44;57.56;67.27;;
74214;Laerm;62576;55.694;37.494;2024-03-17T12:53:30;62.78;57.55;73.03;;
74214;Laerm;62576;55.694;37.494;2024-03-17T12:55:59;63.18;46.50;69.99;;
74214;Laerm;62576;55.694;37.494;2024-03-17T12:58:47;67.34;34.74;96.22;;
74214;Laerm;62576;55.694;37.494;2024-03-17T13:01:35;63.73;58.44;67.38;;
74214;Laerm;62576;55.694;37.494;2024-03-17T13:04:08;63.13;49.39;67.84;;
74214;Laerm;62576;55.694;37.494;2024-03-17T13:06:41;68.06;47.64;96.23;;
74214;Laerm;62576;55.694;37.494;2024-03-17T13:09:12;68.24;-0.70;96.23;;
74214;Laerm;62576;55.694;37.494;2024-03-17T13:11:42;69.16;58.48;96.48;;
74214;Laerm;62576;55.694;37.494;2024-03-17T13:14:13;63.03;54.51;68.18;;
74214;Laerm;62576;55.694;37.494;2024-03-17T13:16:46;66.54;27.00;99.01;;
74214;Laerm;62576;55.694;37.494;2024-03-17T13:19:16;64.72;6.94;68.16;;
74214;Laerm;62576;55.694;37.494;2024-03-17T13:21:49;67.24;36.57;96.23;;
74214;Laerm;62576;55.694;37.494;2024-03-17T13:24:19;64.81;51.73;67.72;;
74214;Laerm;62576;55.694;37.494;2024-03-17T13:26:50;63.98;60.70;68.53;;
74214;Laerm;62576;55.694;37.494;2024-03-17T13:29:24;63.81;57.77;68.20;;
74214;Laerm;62576;55.694;37.494;2024-03-17T13:31:54;66.47;11.18;96.23;;
74214;Laerm;62576;55.694;37.494;2024-03-17T13:34:25;66.92;2.38;99.00;;
74214;Laerm;62576;55.694;37.494;2024-03-17T13:36:57;65.16;12.38;68.20;;
74214;Laerm;62576;55.694;37.494;2024-03-17T13:39:30;65.96;9.57;68.82;;
74214;Laerm;62576;55.694;37.494;2024-03-17T13:42:02;67.40;15.70;96.23;;
74214;Laerm;62576;55.694;37.494;2024-03-17T13:44:32;66.60;58.42;96.21;;
74214;Laerm;62576;55.694;37.494;2024-03-17T13:47:03;66.67;53.19;96.22;;
74214;Laerm;62576;55.694;37.494;2024-03-17T13:49:34;70.06;33.07;99.22;;
74214;Laerm;62576;55.694;37.494;2024-03-17T13:52:06;66.41;49.73;99.10;;
74214;Laerm;62576;55.694;37.494;2024-03-17T13:54:37;67.96;48.48;98.98;;
74214;Laerm;62576;55.694;37.494;2024-03-17T13:57:08;63.63;61.74;66.82;;
74214;Laerm;62576;55.694;37.494;2024-03-17T13:59:38;63.78;56.21;67.11;;
74214;Laerm;62576;55.694;37.494;2024-03-17T14:02:12;66.45;61.13;96.23;;
74214;Laerm;62576;55.694;37.494;2024-03-17T14:04:43;64.56;59.65;74.26;;
74214;Laerm;62576;55.694;37.494;2024-03-17T14:07:16;63.84;28.90;67.21;;
74214;Laerm;62576;55.694;37.494;2024-03-17T14:09:46;67.93;39.30;96.22;;
74214;Laerm;62576;55.694;37.494;2024-03-17T14:12:16;66.60;54.87;96.23;;
74214;Laerm;62576;55.694;37.494;2024-03-17T14:14:46;63.53;55.66;67.56;;
74214;Laerm;62576;55.694;37.494;2024-03-17T14:17:17;63.74;58.40;67.14;;
74214;Laerm;62576;55.694;37.494;2024-03-17T14:19:47;64.17;57.81;68.52;;
74214;Laerm;62576;55.694;37.494;2024-03-17T14:22:19;65.26;59.38;80.43;;
74214;Laerm;62576;55.694;37.494;2024-03-17T14:24:50;65.58;57.88;77.79;;
74214;Laerm;62576;55.694;37.494;2024-03-17T14:27:17;65.51;7.99;77.96;;
74214;Laerm;62576;55.694;37.494;2024-03-17T14:29:50;63.38;59.01;69.06;;
74214;Laerm;62576;55.694;37.494;2024-03-17T14:32:21;62.52;57.55;67.07;;
74214;Laerm;62576;55.694;37.494;2024-03-17T14:34:52;64.19;58.74;68.12;;
74214;Laerm;62576;55.694;37.494;2024-03-17T14:37:26;64.03;58.78;67.36;;
74214;Laerm;62576;55.694;37.494;2024-03-17T14:39:59;64.78;59.50;68.27;;
74214;Laerm;62576;55.694;37.494;2024-03-17T14:42:35;65.32;60.57;69.67;;
74214;Laerm;62576;55.694;37.494;2024-03-17T14:45:06;65.44;60.72;68.74;;
74214;Laerm;62576;55.694;37.494;2024-03-17T14:47:37;65.86;60.44;69.76;;
74214;Laerm;62576;55.694;37.494;2024-03-17T14:50:08;66.78;62.04;82.51;;
74214;Laerm;62576;55.694;37.494;2024-03-17T14:52:42;65.13;60.69;68.24;;
74214;Laerm;62576;55.694;37.494;2024-03-17T14:55:13;65.44;60.62;69.40;;
74214;Laerm;62576;55.694;37.494;2024-03-17T14:57:43;65.22;60.52;72.74;;
74214;Laerm;62576;55.694;37.494;2024-03-17T15:00:14;65.43;61.01;70.20;;
74214;Laerm;62576;55.694;37.494;2024-03-17T15:02:46;65.20;61.83;69.25;;
74214;Laerm;62576;55.694;37.494;2024-03-17T15:05:18;65.13;62.01;69.66;;
74214;Laerm;62576;55.694;37.494;2024-03-17T15:07:57;65.89;60.32;70.12;;
74214;Laerm;62576;55.694;37.494;2024-03-17T15:10:31;65.41;60.00;69.88;;
74214;Laerm;62576;55.694;37.494;2024-03-17T15:13:04;65.46;61.29;71.20;;
74214;Laerm;62576;55.694;37.494;2024-03-17T15:15:35;64.80;60.98;68.89;;
74214;Laerm;62576;55.694;37.494;2024-03-17T15:18:06;64.87;61.54;69.91;;
74214;Laerm;62576;55.694;37.494;2024-03-17T15:20:36;64.71;60.97;69.52;;
74214;Laerm;62576;55.694;37.494;2024-03-17T15:26:55;63.74;59.89;68.73;;
74214;Laerm;62576;55.694;37.494;2024-03-17T16:17:03;63.64;57.92;69.79;;
74214;Laerm;62576;55.694;37.494;2024-03-17T16:37:08;63.26;-4.37;69.89;;
74214;Laerm;62576;55.694;37.494;2024-03-17T16:39:38;63.97;59.26;69.27;;
74214;Laerm;62576;55.694;37.494;2024-03-17T16:42:08;63.72;58.74;68.92;;
74214;Laerm;62576;55.694;37.494;2024-03-17T16:44:45;63.64;58.37;70.89;;
74214;Laerm;62576;55.694;37.494;2024-03-17T16:47:34;63.04;58.39;69.08;;
74214;Laerm;62576;55.694;37.494;2024-03-17T16:50:06;62.74;57.53;67.65;;
74214;Laerm;62576;55.694;37.494;2024-03-17T16:52:40;63.22;57.84;71.61;;
74214;Laerm;62576;55.694;37.494;2024-03-17T16:55:14;63.85;57.98;71.73;;
74214;Laerm;62576;55.694;37.494;2024-03-17T16:57:47;62.59;56.82;68.52;;
74214;Laerm;62576;55.694;37.494;2024-03-17T17:00:19;62.34;57.57;67.93;;
74214;Laerm;62576;55.694;37.494;2024-03-17T17:02:54;63.79;57.66;76.89;;
74214;Laerm;62576;55.694;37.494;2024-03-17T17:05:24;63.41;57.71;71.21;;
74214;Laerm;62576;55.694;37.494;2024-03-17T17:07:57;62.73;57.82;68.81;;
74214;Laerm;62576;55.694;37.494;2024-03-17T17:10:28;63.33;56.08;76.39;;
74214;Laerm;62576;55.694;37.494;2024-03-17T17:12:59;62.02;55.99;73.07;;
74214;Laerm;62576;55.694;37.494;2024-03-17T17:15:29;62.20;56.09;68.06;;
74214;Laerm;62576;55.694;37.494;2024-03-17T17:17:59;62.90;56.30;68.92;;
74214;Laerm;62576;55.694;37.494;2024-03-17T17:20:29;64.21;54.79;81.93;;
74214;Laerm;62576;55.694;37.494;2024-03-17T17:23:04;63.29;59.03;68.90;;
74214;Laerm;62576;55.694;37.494;2024-03-17T17:25:34;62.61;57.67;67.33;;
74214;Laerm;62576;55.694;37.494;2024-03-17T17:28:05;62.90;57.56;76.15;;
74214;Laerm;62576;55.694;37.494;2024-03-17T17:30:35;62.77;58.08;70.40;;
74214;Laerm;62576;55.694;37.494;2024-03-17T17:33:05;62.17;57.26;69.08;;
74214;Laerm;62576;55.694;37.494;2024-03-17T17:35:33;62.96;56.19;68.82;;
74214;Laerm;62576;55.694;37.494;2024-03-17T17:38:07;62.65;57.59;69.94;;
74214;Laerm;62576;55.694;37.494;2024-03-17T17:40:37;62.20;56.10;69.33;;
74214;Laerm;62576;55.694;37.494;2024-03-17T17:43:08;62.08;56.44;75.61;;
74214;Laerm;62576;55.694;37.494;2024-03-17T17:45:39;62.13;55.29;67.64;;
74214;Laerm;62576;55.694;37.494;2024-03-17T17:48:09;62.31;55.68;68.18;;
74214;Laerm;62576;55.694;37.494;2024-03-17T17:50:40;61.88;55.78;67.91;;
74214;Laerm;62576;55.694;37.494;2024-03-17T17:53:13;62.30;55.21;71.58;;